Time;durP1;ratioP1;P1;durP2;ratioP2;P2;SDS_P1;SDS_P2;PMS_P1;PMS_P2;Temp;Humidity;BMP_temperature;BMP_pressure;BME280_temperature;BME280_humidity;BME280_pressure;Samples;Min_cycle;Max_cycle;Signal;HPM_P1;HPM_P2
2023/12/07 00:01:45;;;;;;;21.63;17.57;;;;;;;6.27;76.08;94531.38;5009170;28;20222;-72
2023/12/07 00:04:11;;;;;;;24.60;20.20;;;;;;;6.22;76.24;94539.63;5005884;28;20222;-73
2023/12/07 00:06:36;;;;;;;24.17;19.37;;;;;;;6.28;76.28;94538.22;4996504;28;20277;-73
2023/12/07 00:09:02;;;;;;;25.77;18.53;;;;;;;6.35;76.01;94539.34;5000829;28;20214;-74
2023/12/07 00:11:27;;;;;;;24.60;18.73;;;;;;;6.29;75.80;94547.75;4996363;28;20534;-73
2023/12/07 00:13:53;;;;;;;22.13;18.00;;;;;;;6.36;75.84;94543.59;4999277;28;20221;-73
2023/12/07 00:16:18;;;;;;;23.83;19.07;;;;;;;6.17;76.32;94540.03;5003703;28;20219;-73
2023/12/07 00:18:44;;;;;;;23.97;18.97;;;;;;;6.26;76.11;94541.00;4999840;28;20269;-73
2023/12/07 00:21:10;;;;;;;23.70;18.83;;;;;;;6.39;75.88;94545.97;5000139;28;20225;-73
2023/12/07 00:23:37;;;;;;;24.60;18.77;;;;;;;6.46;75.75;94544.41;5000355;28;20203;-73
2023/12/07 00:26:03;;;;;;;22.17;18.60;;;;;;;6.11;76.40;94548.41;5002013;28;20301;-73
2023/12/07 00:28:29;;;;;;;26.27;19.07;;;;;;;6.16;76.61;94538.38;5005039;28;20222;-73
2023/12/07 00:30:55;;;;;;;23.73;18.23;;;;;;;6.31;76.17;94548.44;4996991;28;20223;-73
2023/12/07 00:33:21;;;;;;;25.03;18.60;;;;;;;6.42;76.01;94544.84;5001843;28;20318;-73
2023/12/07 00:35:47;;;;;;;22.20;18.63;;;;;;;6.37;75.80;94538.25;5006711;28;20207;-74
2023/12/07 00:38:12;;;;;;;25.53;19.07;;;;;;;6.27;75.70;94541.81;5003520;28;20273;-74
2023/12/07 00:40:39;;;;;;;25.27;19.47;;;;;;;6.24;75.99;94540.31;4997766;28;20279;-73
2023/12/07 00:43:05;;;;;;;27.57;21.60;;;;;;;6.16;76.43;94553.22;4999797;28;20299;-74
2023/12/07 00:45:31;;;;;;;28.60;21.17;;;;;;;5.94;77.45;94539.47;4997366;28;20254;-72
2023/12/07 00:47:56;;;;;;;28.53;21.97;;;;;;;5.91;77.94;94546.72;5007439;28;20254;-72
2023/12/07 00:50:22;;;;;;;32.50;24.23;;;;;;;5.81;77.87;94545.88;5003843;28;20224;-72
2023/12/07 00:52:48;;;;;;;31.77;23.80;;;;;;;6.07;77.89;94544.44;5018182;28;20258;-72
2023/12/07 00:55:13;;;;;;;32.17;25.30;;;;;;;5.87;78.21;94542.72;5006591;28;20225;-72
2023/12/07 00:57:40;;;;;;;32.37;23.30;;;;;;;5.99;78.20;94539.06;5001453;28;20219;-72
2023/12/07 01:00:06;;;;;;;34.53;24.40;;;;;;;5.80;78.66;94537.22;5000401;28;20243;-72
2023/12/07 01:02:31;;;;;;;32.07;24.00;;;;;;;5.46;79.75;94549.75;5002223;28;20201;-71
2023/12/07 01:04:56;;;;;;;35.67;25.53;;;;;;;5.69;79.47;94537.31;5005074;28;20219;-72
2023/12/07 01:07:22;;;;;;;34.60;24.57;;;;;;;5.89;78.93;94543.41;5005855;28;20227;-72
2023/12/07 01:09:47;;;;;;;31.47;22.67;;;;;;;6.04;77.94;94528.19;5001331;28;20226;-72
2023/12/07 01:12:13;;;;;;;30.17;22.83;;;;;;;6.13;77.83;94532.63;5003638;28;20219;-72
2023/12/07 01:14:38;;;;;;;30.73;24.17;;;;;;;6.24;77.21;94535.09;5006996;28;20187;-72
2023/12/07 01:17:04;;;;;;;29.43;22.07;;;;;;;6.20;76.40;94536.31;5006839;28;20222;-72
2023/12/07 01:19:29;;;;;;;29.23;22.30;;;;;;;6.09;77.56;94537.25;5002516;28;20226;-72
2023/12/07 01:21:55;;;;;;;30.63;23.00;;;;;;;6.29;76.85;94524.25;5000543;28;20219;-72
2023/12/07 01:24:20;;;;;;;30.47;23.53;;;;;;;6.42;76.67;94529.19;4999656;28;20226;-71
2023/12/07 01:26:46;;;;;;;32.00;23.30;;;;;;;6.49;76.53;94530.25;5001417;28;20222;-71
2023/12/07 01:29:11;;;;;;;31.70;23.50;;;;;;;6.57;76.02;94528.59;5001011;28;20206;-71
2023/12/07 01:31:37;;;;;;;30.03;22.90;;;;;;;6.38;76.16;94526.81;5006433;28;20282;-71
2023/12/07 01:34:02;;;;;;;31.43;23.70;;;;;;;6.35;76.54;94528.91;5009463;28;20242;-71
2023/12/07 01:36:28;;;;;;;33.23;23.73;;;;;;;6.37;76.41;94517.34;5005063;28;20227;-71
2023/12/07 01:38:53;;;;;;;29.87;22.67;;;;;;;6.50;76.40;94524.91;5000711;28;20711;-70
2023/12/07 01:41:19;;;;;;;30.43;23.77;;;;;;;6.46;76.88;94514.88;5009587;28;20193;-71
2023/12/07 01:43:47;;;;;;;31.03;23.23;;;;;;;6.49;76.45;94518.03;4999017;28;20290;-71
2023/12/07 01:46:14;;;;;;;31.03;22.83;;;;;;;6.47;76.58;94522.59;4997945;28;20235;-71
2023/12/07 01:48:40;;;;;;;31.20;23.60;;;;;;;6.53;76.16;94510.75;5002662;28;20219;-72
2023/12/07 01:51:06;;;;;;;30.97;24.10;;;;;;;6.37;76.42;94516.53;4996298;28;20253;-72
2023/12/07 01:53:32;;;;;;;32.67;24.33;;;;;;;6.40;76.58;94516.25;5003849;28;20270;-71
2023/12/07 01:55:58;;;;;;;34.17;24.13;;;;;;;6.33;76.94;94520.38;4997884;28;20215;-72
2023/12/07 01:58:24;;;;;;;30.90;23.90;;;;;;;6.25;77.22;94523.66;5007495;28;20272;-72
2023/12/07 02:00:49;;;;;;;30.00;22.43;;;;;;;6.19;77.37;94522.44;4998524;28;20222;-71
2023/12/07 02:03:16;;;;;;;33.30;23.70;;;;;;;6.28;77.18;94528.66;5003098;28;20235;-72
2023/12/07 02:05:43;;;;;;;32.17;23.43;;;;;;;6.39;76.65;94525.88;5000215;28;20184;-72
2023/12/07 02:08:08;;;;;;;32.87;22.57;;;;;;;6.33;76.71;94525.59;5000951;28;20226;-72
2023/12/07 02:10:35;;;;;;;32.00;24.00;;;;;;;6.31;77.03;94524.94;5001479;28;20219;-72
2023/12/07 02:13:00;;;;;;;31.33;23.77;;;;;;;6.31;76.89;94520.53;5003575;28;20227;-72
2023/12/07 02:15:26;;;;;;;30.60;22.67;;;;;;;6.08;77.59;94514.75;5005964;28;20274;-71
2023/12/07 02:18:14;;;;;;;34.27;23.73;;;;;;;6.23;77.57;94516.94;5006625;28;20274;-72
2023/12/07 02:20:53;;;;;;;32.53;23.50;;;;;;;6.26;76.92;94514.88;5026588;28;20191;-71
2023/12/07 02:23:20;;;;;;;31.50;23.30;;;;;;;6.27;77.12;94513.91;4985462;28;20231;-71
2023/12/07 02:29:08;;;;;;;31.43;22.63;;;;;;;6.31;76.84;94506.66;4999068;28;20218;-71
2023/12/07 02:31:33;;;;;;;33.00;23.40;;;;;;;6.31;76.93;94506.66;5007915;28;20222;-71
2023/12/07 02:33:59;;;;;;;33.70;23.57;;;;;;;6.31;77.02;94504.03;5010452;28;20223;-71
2023/12/07 02:36:26;;;;;;;34.47;23.17;;;;;;;6.29;76.59;94498.94;5005902;28;20219;-71
2023/12/07 02:38:56;;;;;;;30.20;23.23;;;;;;;6.23;76.99;94494.28;5001580;28;20246;-72
2023/12/07 02:41:22;;;;;;;34.40;24.00;;;;;;;6.25;77.07;94507.19;5009995;28;20187;-71
2023/12/07 02:43:47;;;;;;;32.67;24.40;;;;;;;6.24;76.84;94497.72;5003029;28;20274;-71
2023/12/07 02:46:13;;;;;;;32.30;23.17;;;;;;;6.26;76.88;94503.63;5001160;28;20284;-71
2023/12/07 02:48:38;;;;;;;33.80;24.00;;;;;;;6.23;77.15;94499.50;5005550;28;20227;-71
2023/12/07 02:51:04;;;;;;;30.27;22.63;;;;;;;6.33;77.16;94500.31;5000618;28;20286;-71
2023/12/07 02:53:29;;;;;;;32.37;23.77;;;;;;;6.29;77.12;94498.13;5005881;28;20176;-71
2023/12/07 02:55:55;;;;;;;33.27;22.67;;;;;;;6.05;77.61;94495.94;5004631;28;20273;-71
2023/12/07 02:58:20;;;;;;;32.40;22.87;;;;;;;6.26;77.26;94503.63;5005681;28;20234;-71
2023/12/07 03:00:46;;;;;;;31.23;23.33;;;;;;;6.27;77.45;94508.69;4997732;28;20378;-71
2023/12/07 03:03:11;;;;;;;34.97;24.00;;;;;;;6.43;76.99;94508.13;5005385;28;20298;-71
2023/12/07 03:05:36;;;;;;;32.57;21.90;;;;;;;6.25;77.12;94507.19;5008960;28;20198;-72
2023/12/07 03:08:02;;;;;;;32.30;23.10;;;;;;;6.36;76.89;94507.03;5004034;28;20226;-72
2023/12/07 03:10:27;;;;;;;31.17;22.43;;;;;;;6.35;76.88;94508.00;5002189;28;20219;-70
2023/12/07 03:12:53;;;;;;;28.97;22.43;;;;;;;6.29;76.88;94512.00;5006409;28;20230;-70
2023/12/07 03:15:18;;;;;;;31.50;22.87;;;;;;;6.34;76.92;94517.63;5004310;28;20256;-71
2023/12/07 03:17:44;;;;;;;31.43;23.10;;;;;;;6.34;76.71;94519.44;5007968;28;20202;-71
2023/12/07 03:20:10;;;;;;;34.37;23.70;;;;;;;6.44;76.39;94515.00;5010682;28;20218;-71
2023/12/07 03:22:36;;;;;;;31.10;22.07;;;;;;;6.50;76.32;94514.47;4989291;28;20231;-71
2023/12/07 03:25:01;;;;;;;32.13;22.93;;;;;;;6.42;76.41;94522.16;5008839;28;20231;-71
2023/12/07 03:27:28;;;;;;;32.03;23.57;;;;;;;6.46;76.30;94518.31;5003320;28;20231;-71
2023/12/07 03:29:53;;;;;;;29.90;21.50;;;;;;;6.52;76.25;94529.97;5001036;28;20206;-71
2023/12/07 03:32:19;;;;;;;30.97;23.00;;;;;;;6.48;76.06;94526.00;5009414;28;20187;-71
2023/12/07 03:34:45;;;;;;;29.70;22.40;;;;;;;6.33;76.01;94530.81;5003126;28;20222;-70
2023/12/07 03:37:11;;;;;;;31.23;23.57;;;;;;;6.14;76.87;94534.25;5008077;28;20230;-70
2023/12/07 03:39:36;;;;;;;29.03;22.17;;;;;;;5.98;77.63;94542.63;5005417;28;20357;-71
2023/12/07 03:42:02;;;;;;;29.00;21.43;;;;;;;6.07;77.47;94528.78;5006456;28;20217;-71
2023/12/07 03:44:27;;;;;;;30.57;22.80;;;;;;;5.91;77.44;94537.09;5007037;28;20187;-71
2023/12/07 03:46:53;;;;;;;31.70;22.70;;;;;;;6.12;77.17;94529.19;5002755;28;20238;-71
2023/12/07 03:49:18;;;;;;;30.37;22.30;;;;;;;5.89;77.47;94541.63;5004339;28;20319;-71
2023/12/07 03:51:44;;;;;;;31.10;22.07;;;;;;;5.99;77.17;94528.63;5004941;28;20223;-70
2023/12/07 03:54:09;;;;;;;30.13;21.70;;;;;;;6.22;76.43;94523.13;5002480;28;20225;-71
2023/12/07 03:56:35;;;;;;;29.50;22.00;;;;;;;6.28;76.42;94523.41;5008983;28;20249;-71
2023/12/07 03:59:00;;;;;;;29.87;22.53;;;;;;;6.23;76.39;94523.00;5002153;28;20254;-71
2023/12/07 04:01:28;;;;;;;30.53;22.33;;;;;;;6.28;76.42;94518.19;5000471;28;20251;-73
2023/12/07 04:03:55;;;;;;;30.03;22.30;;;;;;;6.29;76.00;94525.06;5009756;28;20227;-72
2023/12/07 04:06:23;;;;;;;31.97;22.50;;;;;;;6.23;76.29;94519.53;5002599;28;20227;-71
2023/12/07 04:08:49;;;;;;;30.27;22.27;;;;;;;6.21;76.09;94524.09;5007665;28;20199;-72
2023/12/07 04:11:16;;;;;;;29.20;21.67;;;;;;;6.08;76.73;94519.16;5010743;28;20202;-72
2023/12/07 04:13:42;;;;;;;26.63;20.87;;;;;;;6.05;77.03;94512.41;4998104;28;20237;-70
2023/12/07 04:16:09;;;;;;;28.20;21.63;;;;;;;6.13;76.47;94512.56;5007925;28;20227;-71
2023/12/07 04:18:34;;;;;;;26.10;20.50;;;;;;;6.25;75.87;94520.25;4999338;28;20246;-70
2023/12/07 04:20:59;;;;;;;30.07;20.77;;;;;;;6.27;76.16;94528.75;5004228;28;20658;-71
2023/12/07 04:23:25;;;;;;;29.70;20.07;;;;;;;6.24;76.32;94539.50;5004675;28;20206;-70
2023/12/07 04:25:51;;;;;;;27.97;20.53;;;;;;;6.22;76.35;94534.38;4997429;28;20278;-72
2023/12/07 04:28:16;;;;;;;27.00;20.50;;;;;;;6.09;75.78;94550.31;5005329;28;20227;-71
2023/12/07 04:30:42;;;;;;;27.10;18.70;;;;;;;6.00;76.33;94545.91;5002879;28;20223;-71
2023/12/07 04:33:08;;;;;;;26.53;21.00;;;;;;;5.77;77.88;94549.69;4999062;28;20223;-70
2023/12/07 04:35:34;;;;;;;25.20;20.37;;;;;;;5.55;79.17;94556.78;5002282;28;20195;-71
2023/12/07 04:37:59;;;;;;;27.90;23.57;;;;;;;5.49;79.56;94559.91;5001809;28;20255;-72
2023/12/07 04:40:25;;;;;;;29.37;20.67;;;;;;;5.69;78.60;94558.19;5003162;28;20294;-72
2023/12/07 04:42:51;;;;;;;28.03;22.60;;;;;;;5.64;78.50;94561.19;5006484;28;20251;-74
2023/12/07 04:45:16;;;;;;;24.20;20.53;;;;;;;5.82;78.25;94544.91;5002436;28;20231;-75
2023/12/07 04:47:42;;;;;;;25.73;18.87;;;;;;;5.98;77.15;94555.66;5003220;28;20238;-72
2023/12/07 04:50:08;;;;;;;24.37;18.83;;;;;;;5.94;77.11;94554.28;5009154;28;20280;-74
2023/12/07 04:52:33;;;;;;;26.70;18.60;;;;;;;5.97;77.00;94557.44;5004705;28;20233;-73
2023/12/07 04:54:59;;;;;;;25.53;19.87;;;;;;;5.95;76.84;94553.31;5002905;28;20227;-73
2023/12/07 04:57:25;;;;;;;24.73;19.17;;;;;;;5.95;76.88;94559.38;5001915;28;20227;-73
2023/12/07 04:59:50;;;;;;;27.67;19.27;;;;;;;5.93;77.27;94557.81;4999031;28;20197;-73
2023/12/07 05:02:16;;;;;;;26.60;18.60;;;;;;;5.97;76.96;94564.47;5001246;28;20207;-72
2023/12/07 05:04:42;;;;;;;26.03;19.90;;;;;;;6.09;76.28;94567.75;5005382;28;20231;-72
2023/12/07 05:07:08;;;;;;;26.97;20.00;;;;;;;5.93;76.87;94569.13;5003952;28;20223;-72
2023/12/07 05:09:34;;;;;;;24.10;18.70;;;;;;;5.85;76.91;94565.50;5009373;28;20230;-73
2023/12/07 05:11:59;;;;;;;27.63;20.13;;;;;;;5.64;78.01;94570.78;5007975;28;20192;-72
2023/12/07 05:14:25;;;;;;;27.83;19.97;;;;;;;5.63;78.60;94577.78;5013603;28;20259;-72
2023/12/07 05:16:52;;;;;;;28.37;20.17;;;;;;;5.67;77.93;94576.59;5001325;28;20218;-71
2023/12/07 05:19:27;;;;;;;26.43;18.33;;;;;;;5.83;77.86;94583.09;5006171;28;20215;-72
2023/12/07 05:21:53;;;;;;;26.53;20.50;;;;;;;5.92;77.21;94580.47;5009587;28;20222;-72
2023/12/07 05:24:18;;;;;;;24.00;18.20;;;;;;;6.03;76.77;94579.56;5005913;28;20301;-72
2023/12/07 05:26:48;;;;;;;23.77;17.33;;;;;;;5.99;76.44;94575.59;5009072;28;20203;-73
2023/12/07 05:29:15;;;;;;;23.83;18.17;;;;;;;6.18;76.31;94575.63;4998940;28;20274;-73
2023/12/07 05:31:40;;;;;;;21.93;16.90;;;;;;;6.15;76.06;94575.91;5001510;28;20229;-72
2023/12/07 05:34:07;;;;;;;24.17;17.47;;;;;;;6.02;76.35;94580.53;5002047;28;20219;-74
2023/12/07 05:36:32;;;;;;;23.10;18.20;;;;;;;5.85;76.94;94588.97;5003963;28;20290;-74
2023/12/07 05:38:58;;;;;;;23.63;17.87;;;;;;;5.75;77.09;94592.41;5002906;28;20199;-72
2023/12/07 05:41:25;;;;;;;24.23;18.23;;;;;;;5.67;77.76;94592.25;5001832;28;20187;-70
2023/12/07 05:43:51;;;;;;;22.70;15.57;;;;;;;5.73;77.16;94589.09;5001054;28;20227;-70
2023/12/07 05:46:16;;;;;;;21.30;17.83;;;;;;;5.64;77.66;94594.25;4999865;28;20243;-70
2023/12/07 05:48:42;;;;;;;21.73;17.10;;;;;;;5.70;77.56;94589.34;4997816;28;20274;-70
2023/12/07 05:51:17;;;;;;;20.07;16.33;;;;;;;5.70;77.52;94596.38;4994564;28;20230;-70
2023/12/07 05:53:43;;;;;;;22.83;16.87;;;;;;;5.63;77.56;94595.22;5000211;28;20208;-73
2023/12/07 05:56:09;;;;;;;23.83;17.40;;;;;;;5.47;78.06;94588.72;5006028;28;20217;-73
2023/12/07 05:58:35;;;;;;;22.23;16.43;;;;;;;5.64;78.05;94600.34;5002169;28;20218;-73
2023/12/07 06:01:01;;;;;;;20.80;17.10;;;;;;;5.68;77.72;94593.06;5001521;28;20223;-74
2023/12/07 06:03:27;;;;;;;23.37;17.23;;;;;;;5.78;77.27;94603.53;4999788;28;20270;-74
2023/12/07 06:05:53;;;;;;;19.63;16.87;;;;;;;5.61;77.71;94602.34;5004091;28;20210;-73
2023/12/07 06:08:19;;;;;;;20.97;16.57;;;;;;;5.49;78.56;94605.06;5005584;28;20187;-73
2023/12/07 06:10:44;;;;;;;23.93;19.67;;;;;;;5.28;79.13;94596.47;5003040;28;20218;-74
2023/12/07 06:13:10;;;;;;;23.10;18.10;;;;;;;5.45;78.78;94600.22;5005337;28;20305;-74
2023/12/07 06:15:36;;;;;;;21.97;19.37;;;;;;;5.51;78.86;94603.16;4997527;28;20254;-73
2023/12/07 06:18:01;;;;;;;23.20;19.10;;;;;;;5.58;78.49;94600.84;4992315;28;20199;-74
2023/12/07 06:20:27;;;;;;;23.50;17.27;;;;;;;5.71;78.03;94593.59;4998035;28;20290;-73
2023/12/07 06:22:52;;;;;;;20.93;16.97;;;;;;;5.96;77.27;94610.63;4995535;28;20233;-68
2023/12/07 06:25:18;;;;;;;22.40;18.03;;;;;;;6.05;76.24;94605.56;5001154;28;20230;-69
2023/12/07 06:27:44;;;;;;;20.53;15.90;;;;;;;6.02;76.47;94611.88;5004349;28;20234;-71
2023/12/07 06:30:10;;;;;;;22.13;16.33;;;;;;;6.06;76.40;94610.63;5003901;28;20333;-70
2023/12/07 06:32:36;;;;;;;23.87;17.00;;;;;;;5.87;76.87;94615.78;4996331;28;20191;-70
2023/12/07 06:35:04;;;;;;;22.63;17.10;;;;;;;5.90;77.32;94613.72;4999079;28;20219;-71
2023/12/07 06:37:29;;;;;;;23.50;16.60;;;;;;;6.03;76.43;94616.13;5003481;28;20235;-72
2023/12/07 06:39:55;;;;;;;21.73;16.97;;;;;;;6.16;76.17;94613.25;5003348;28;20215;-72
2023/12/07 06:42:20;;;;;;;21.53;16.67;;;;;;;6.23;75.61;94618.75;5001476;28;20239;-72
2023/12/07 06:44:49;;;;;;;20.87;16.17;;;;;;;6.35;75.42;94617.69;5006001;28;20187;-72
2023/12/07 06:47:15;;;;;;;20.80;16.40;;;;;;;6.34;75.03;94613.44;5002296;28;20248;-72
2023/12/07 06:49:40;;;;;;;21.30;16.53;;;;;;;6.33;75.35;94611.75;5001952;28;20229;-72
2023/12/07 06:52:06;;;;;;;21.87;15.73;;;;;;;6.26;75.21;94621.13;4998045;28;20230;-73
2023/12/07 06:54:31;;;;;;;25.03;17.00;;;;;;;6.29;75.70;94628.69;5002183;28;20220;-73
2023/12/07 06:56:57;;;;;;;22.23;15.33;;;;;;;6.32;75.28;94621.38;5005204;28;20199;-73
2023/12/07 06:59:22;;;;;;;21.83;15.73;;;;;;;6.29;75.25;94618.25;5003509;28;20187;-73
2023/12/07 07:01:48;;;;;;;18.67;13.87;;;;;;;6.42;74.83;94618.81;5000789;28;20297;-74
2023/12/07 07:04:14;;;;;;;17.67;13.90;;;;;;;6.39;74.52;94626.91;5002816;28;20226;-75
2023/12/07 07:06:41;;;;;;;17.00;13.63;;;;;;;6.31;74.93;94626.78;4999604;28;20230;-73
2023/12/07 07:09:06;;;;;;;17.17;13.33;;;;;;;6.25;74.92;94622.06;5003988;28;20222;-73
2023/12/07 07:11:32;;;;;;;16.40;13.00;;;;;;;6.42;74.88;94628.44;4998300;28;20219;-71
2023/12/07 07:13:57;;;;;;;15.97;12.57;;;;;;;6.49;74.29;94629.50;5006305;28;20305;-72
2023/12/07 07:16:22;;;;;;;15.73;12.17;;;;;;;6.42;74.43;94634.47;5005267;28;20230;-71
2023/12/07 07:18:48;;;;;;;16.50;12.53;;;;;;;6.45;74.47;94639.41;5006138;28;20242;-71
2023/12/07 07:21:13;;;;;;;15.40;12.47;;;;;;;6.59;74.15;94635.56;5004148;28;20222;-72
2023/12/07 07:23:39;;;;;;;15.63;12.37;;;;;;;6.70;73.72;94632.81;5002379;28;20208;-68
2023/12/07 07:26:04;;;;;;;14.97;12.37;;;;;;;6.74;73.03;94628.16;5011139;28;20214;-72
2023/12/07 07:28:30;;;;;;;15.27;12.80;;;;;;;6.55;73.59;94637.66;5004914;28;20231;-69
2023/12/07 07:30:55;;;;;;;16.50;12.97;;;;;;;6.44;73.99;94634.31;4994213;28;20223;-72
2023/12/07 07:33:21;;;;;;;15.60;12.03;;;;;;;6.39;74.04;94639.97;5005905;28;20232;-74
2023/12/07 07:35:46;;;;;;;16.53;11.67;;;;;;;6.37;73.82;94641.88;5006588;28;20218;-73
2023/12/07 07:38:12;;;;;;;15.73;12.70;;;;;;;6.30;73.71;94630.31;5002517;28;20183;-78
2023/12/07 07:40:37;;;;;;;16.37;13.23;;;;;;;6.30;73.95;94641.59;4999525;28;20250;-77
2023/12/07 07:43:03;;;;;;;14.37;12.50;;;;;;;6.12;74.57;94643.19;5005962;28;20255;-74
2023/12/07 07:45:28;;;;;;;18.70;13.00;;;;;;;6.27;74.74;94641.03;5003529;28;20313;-75
2023/12/07 07:47:54;;;;;;;17.33;12.90;;;;;;;6.43;74.62;94645.75;5005428;28;20227;-73
2023/12/07 07:50:19;;;;;;;15.07;12.47;;;;;;;6.49;74.25;94653.03;5005991;28;20405;-75
2023/12/07 07:52:45;;;;;;;15.77;12.13;;;;;;;6.35;74.62;94641.19;5002223;28;20222;-74
2023/12/07 07:55:11;;;;;;;15.13;12.33;;;;;;;6.51;74.34;94654.53;5014015;28;20254;-69
2023/12/07 07:57:36;;;;;;;17.10;12.47;;;;;;;6.31;74.39;94647.66;5000671;28;20223;-70
2023/12/07 08:00:04;;;;;;;16.83;12.57;;;;;;;6.32;74.89;94657.94;5001983;28;21833;-71
2023/12/07 08:02:30;;;;;;;18.40;13.60;;;;;;;6.36;74.76;94661.97;5002443;28;20265;-71
2023/12/07 08:04:55;;;;;;;15.37;12.30;;;;;;;6.39;74.67;94671.31;5003348;28;20230;-72
2023/12/07 08:07:21;;;;;;;15.60;10.60;;;;;;;6.31;74.31;94666.75;5006117;28;20318;-73
2023/12/07 08:09:46;;;;;;;13.10;10.67;;;;;;;6.23;74.51;94677.03;4987727;28;20219;-73
2023/12/07 08:12:12;;;;;;;12.47;9.47;;;;;;;6.17;74.26;94673.19;4994881;28;20222;-70
2023/12/07 08:14:37;;;;;;;11.87;10.07;;;;;;;6.30;74.05;94672.91;5000160;28;20188;-71
2023/12/07 08:17:04;;;;;;;8.80;7.90;;;;;;;6.02;73.74;94684.94;4998782;28;20314;-71
2023/12/07 08:19:29;;;;;;;10.80;7.30;;;;;;;5.93;74.02;94677.84;5005538;28;20234;-70
2023/12/07 08:21:55;;;;;;;10.93;7.80;;;;;;;5.92;73.80;94678.81;5000148;28;20227;-69
2023/12/07 08:24:20;;;;;;;13.13;8.30;;;;;;;6.10;73.48;94674.66;5004224;28;20277;-72
2023/12/07 08:26:46;;;;;;;11.17;8.40;;;;;;;6.01;73.55;94683.28;5004619;28;20191;-69
2023/12/07 08:29:11;;;;;;;11.47;8.30;;;;;;;6.09;73.71;94685.22;5001873;28;20198;-72
2023/12/07 08:31:36;;;;;;;9.53;7.70;;;;;;;5.78;74.73;94681.81;4994702;28;20295;-72
2023/12/07 08:34:02;;;;;;;9.87;8.87;;;;;;;5.80;74.64;94690.31;5000749;28;20283;-73
2023/12/07 08:36:28;;;;;;;10.07;8.93;;;;;;;5.99;74.27;94687.81;5004166;28;20234;-77
2023/12/07 08:38:54;;;;;;;9.63;8.63;;;;;;;5.67;74.98;94687.94;5003465;28;20218;-72
2023/12/07 08:41:19;;;;;;;11.20;10.00;;;;;;;5.84;74.26;94694.31;5000917;28;20222;-71
2023/12/07 08:43:45;;;;;;;8.20;7.40;;;;;;;5.83;73.21;94700.50;5005504;28;20237;-75
2023/12/07 08:46:10;;;;;;;7.50;6.43;;;;;;;5.72;73.68;94699.63;4999492;28;20231;-74
2023/12/07 08:48:37;;;;;;;6.70;5.70;;;;;;;5.55;73.55;94692.38;5003896;28;20310;-75
2023/12/07 08:51:03;;;;;;;6.87;4.70;;;;;;;5.52;72.93;94706.50;4991745;28;20237;-71
2023/12/07 08:53:28;;;;;;;6.17;5.50;;;;;;;5.45;73.21;94702.78;4983920;28;20187;-77
2023/12/07 08:55:54;;;;;;;8.00;6.00;;;;;;;5.47;73.54;94702.63;5004118;28;20218;-76
2023/12/07 08:58:20;;;;;;;6.07;5.40;;;;;;;5.22;74.30;94711.69;5004585;28;20227;-76
2023/12/07 09:00:46;;;;;;;5.20;4.70;;;;;;;5.28;73.77;94696.34;4999734;28;20215;-75
2023/12/07 09:03:12;;;;;;;5.10;4.70;;;;;;;5.30;73.26;94704.03;4990914;28;20257;-74
2023/12/07 09:05:37;;;;;;;5.70;5.10;;;;;;;5.24;74.13;94705.38;5005515;28;20187;-74
2023/12/07 09:08:03;;;;;;;5.63;5.07;;;;;;;5.09;74.50;94691.81;5003311;28;20229;-76
2023/12/07 09:10:28;;;;;;;6.83;4.83;;;;;;;5.13;74.77;94709.81;5000741;28;20249;-73
2023/12/07 09:12:56;;;;;;;4.80;3.70;;;;;;;5.14;73.62;94694.06;5003712;28;20238;-73
2023/12/07 09:15:22;;;;;;;4.67;3.63;;;;;;;5.13;73.84;94710.63;5001398;28;20230;-80
2023/12/07 09:17:51;;;;;;;4.37;3.97;;;;;;;5.17;73.83;94701.63;5002537;28;20195;-76
2023/12/07 09:20:16;;;;;;;3.90;3.60;;;;;;;5.14;73.41;94699.28;5006196;28;20194;-76
2023/12/07 09:22:46;;;;;;;4.30;3.90;;;;;;;5.26;72.96;94702.63;5001490;28;20450;-75
2023/12/07 09:25:16;;;;;;;3.93;3.53;;;;;;;5.25;73.57;94712.25;5000689;28;20306;-74
2023/12/07 09:27:41;;;;;;;3.83;3.53;;;;;;;5.28;72.59;94709.38;5002854;28;20222;-74
2023/12/07 09:30:10;;;;;;;4.53;4.13;;;;;;;5.03;74.21;94707.97;5001631;28;20258;-75
2023/12/07 09:32:45;;;;;;;4.47;4.07;;;;;;;4.89;74.49;94699.63;5006688;28;20219;-71
2023/12/07 09:35:19;;;;;;;3.63;3.33;;;;;;;5.09;73.87;94704.84;4999528;28;20302;-69
2023/12/07 09:37:45;;;;;;;3.10;2.90;;;;;;;4.86;74.48;94713.72;4998581;28;20229;-69
2023/12/07 09:40:21;;;;;;;3.00;2.80;;;;;;;4.69;74.90;94709.88;5001369;28;20305;-72
2023/12/07 09:42:47;;;;;;;2.87;2.57;;;;;;;5.00;74.40;94718.66;5018982;28;20249;-73
2023/12/07 09:45:16;;;;;;;3.07;2.87;;;;;;;4.93;73.92;94704.47;4999503;28;20298;-74
2023/12/07 09:47:42;;;;;;;3.13;2.47;;;;;;;4.86;74.88;94705.91;5005437;28;20235;-72
2023/12/07 09:50:08;;;;;;;2.87;2.60;;;;;;;4.71;74.54;94715.81;5008294;28;20288;-71
2023/12/07 09:52:35;;;;;;;2.80;2.60;;;;;;;4.74;74.88;94702.53;5003577;28;20226;-73
2023/12/07 09:55:04;;;;;;;2.40;2.20;;;;;;;4.77;74.28;94711.88;5001149;28;20277;-73
2023/12/07 09:57:30;;;;;;;2.17;2.03;;;;;;;4.60;74.65;94711.44;4986527;28;20234;-72
2023/12/07 09:59:56;;;;;;;2.53;2.30;;;;;;;4.47;75.31;94715.16;4991140;28;20199;-72
2023/12/07 10:02:22;;;;;;;2.30;2.10;;;;;;;4.54;75.27;94716.31;5000468;28;20210;-78
2023/12/07 10:04:49;;;;;;;2.33;2.13;;;;;;;4.52;75.20;94715.63;5004883;28;20237;-74
2023/12/07 10:07:14;;;;;;;2.97;2.40;;;;;;;4.58;74.70;94712.53;5002402;28;20305;-77
2023/12/07 10:09:43;;;;;;;2.63;2.37;;;;;;;4.49;74.42;94716.69;5001906;28;20310;-78
2023/12/07 10:12:08;;;;;;;3.07;2.20;;;;;;;4.56;74.50;94723.06;5003870;28;20223;-77
2023/12/07 10:14:34;;;;;;;2.27;2.07;;;;;;;4.36;74.43;94713.41;5003792;28;20274;-72
2023/12/07 10:17:00;;;;;;;2.17;1.97;;;;;;;4.26;75.46;94707.28;5005424;28;20227;-76
2023/12/07 10:19:27;;;;;;;1.80;1.70;;;;;;;4.28;75.01;94715.81;4997113;28;20226;-76
2023/12/07 10:21:53;;;;;;;1.83;1.73;;;;;;;4.07;75.89;94718.31;5000361;28;20258;-74
2023/12/07 10:24:20;;;;;;;1.40;1.30;;;;;;;4.10;75.48;94718.06;5002362;28;20230;-73
2023/12/07 10:26:48;;;;;;;1.70;1.60;;;;;;;4.29;74.62;94707.84;4999837;28;20191;-74
2023/12/07 10:29:13;;;;;;;1.60;1.50;;;;;;;4.16;75.03;94715.78;5007003;28;20188;-73
2023/12/07 10:31:39;;;;;;;1.57;1.40;;;;;;;4.23;74.81;94718.75;4997966;28;20249;-71
2023/12/07 10:34:05;;;;;;;1.70;1.57;;;;;;;4.15;75.08;94719.34;5005492;28;20222;-71
2023/12/07 10:36:31;;;;;;;1.40;1.30;;;;;;;3.94;75.84;94711.44;5003142;28;20234;-74
2023/12/07 10:38:57;;;;;;;1.63;1.50;;;;;;;3.95;75.49;94714.88;4990217;28;20215;-73
2023/12/07 10:41:24;;;;;;;2.23;1.57;;;;;;;3.81;76.28;94712.50;4993013;28;20218;-73
2023/12/07 10:44:01;;;;;;;2.33;1.83;;;;;;;3.67;76.99;94710.97;5002372;28;20234;-71
2023/12/07 10:46:27;;;;;;;1.67;1.57;;;;;;;3.60;77.06;94704.59;5010949;28;20252;-72
2023/12/07 10:49:01;;;;;;;1.73;1.63;;;;;;;3.46;78.20;94703.84;5007181;28;20279;-72
2023/12/07 10:51:31;;;;;;;1.60;1.50;;;;;;;3.45;77.30;94710.00;5008579;28;20230;-73
2023/12/07 10:53:58;;;;;;;1.57;1.47;;;;;;;3.48;77.79;94707.16;5012605;28;20195;-74
2023/12/07 10:56:42;;;;;;;1.60;1.50;;;;;;;3.51;77.38;94706.13;5003123;28;20198;-71
2023/12/07 10:59:13;;;;;;;1.70;1.60;;;;;;;3.66;77.09;94710.16;5000304;28;20289;-73
2023/12/07 11:01:39;;;;;;;2.20;2.00;;;;;;;3.51;76.83;94711.31;5009796;28;20227;-72
2023/12/07 11:04:06;;;;;;;1.87;1.70;;;;;;;3.40;77.64;94709.53;5005900;28;20249;-70
2023/12/07 11:06:32;;;;;;;2.73;1.73;;;;;;;3.32;78.73;94714.47;5003234;28;20224;-71
2023/12/07 11:09:01;;;;;;;1.60;1.43;;;;;;;3.20;78.57;94715.38;4997702;28;20191;-79
2023/12/07 11:11:36;;;;;;;2.00;1.50;;;;;;;3.18;78.86;94715.50;4997011;28;20188;-76
2023/12/07 11:14:07;;;;;;;2.20;1.83;;;;;;;3.44;78.70;94715.31;5014893;28;20214;-75
2023/12/07 11:16:36;;;;;;;1.90;1.70;;;;;;;3.36;78.59;94705.50;5008692;28;20274;-73
2023/12/07 11:19:02;;;;;;;2.10;1.90;;;;;;;3.23;79.11;94708.19;5006926;28;20283;-74
2023/12/07 11:21:28;;;;;;;1.90;1.70;;;;;;;3.25;79.19;94705.47;5005046;28;20310;-74
2023/12/07 11:23:54;;;;;;;1.83;1.73;;;;;;;3.39;78.42;94717.44;5005477;28;20286;-76
2023/12/07 11:26:26;;;;;;;1.77;1.67;;;;;;;3.43;77.95;94718.88;5003600;28;20269;-69
2023/12/07 11:28:52;;;;;;;2.70;1.90;;;;;;;3.43;78.01;94709.28;5003682;28;20223;-73